Time;durP1;ratioP1;P1;durP2;ratioP2;P2;SDS_P1;SDS_P2;PMS_P1;PMS_P2;Temp;Humidity;BMP_temperature;BMP_pressure;BME280_temperature;BME280_humidity;BME280_pressure;Samples;Min_cycle;Max_cycle;Signal;HPM_P1;HPM_P2
2021/12/31 00:01:02;;;;;;;15.07;3.45;;;13.00;99.90;;;;;;5013530;28;20045;-50
2021/12/31 00:03:28;;;;;;;11.50;3.35;;;13.00;99.90;;;;;;5013119;28;20092;-49
2021/12/31 00:05:53;;;;;;;13.70;3.22;;;13.00;99.90;;;;;;5013062;28;20560;-48
2021/12/31 00:08:19;;;;;;;13.43;2.80;;;13.00;99.90;;;;;;5013120;28;20489;-52
2021/12/31 00:10:45;;;;;;;13.70;3.20;;;13.00;99.90;;;;;;5013274;28;20073;-50
2021/12/31 00:13:10;;;;;;;20.00;4.18;;;13.00;99.90;;;;;;5012853;28;20429;-49
2021/12/31 00:15:36;;;;;;;12.82;3.20;;;13.00;99.90;;;;;;5013020;28;20096;-49
2021/12/31 00:18:02;;;;;;;11.38;3.15;;;13.00;99.90;;;;;;5013187;28;20037;-50
2021/12/31 00:20:28;;;;;;;12.45;3.30;;;13.10;99.90;;;;;;4979649;28;20042;-48
2021/12/31 00:23:06;;;;;;;13.30;3.33;;;13.10;99.90;;;;;;4995316;28;20505;-51
2021/12/31 00:25:39;;;;;;;17.90;3.55;;;13.10;99.90;;;;;;5012985;28;20041;-52
2021/12/31 00:28:05;;;;;;;12.18;3.25;;;13.10;99.90;;;;;;5012534;28;20046;-49
2021/12/31 00:30:31;;;;;;;12.70;3.63;;;13.10;99.90;;;;;;5012734;28;20045;-49
2021/12/31 00:32:57;;;;;;;13.57;3.53;;;13.10;99.90;;;;;;4995071;28;20057;-51
2021/12/31 00:35:23;;;;;;;12.02;3.22;;;13.10;99.90;;;;;;4992075;28;20498;-51
2021/12/31 00:37:49;;;;;;;12.18;3.40;;;13.10;99.90;;;;;;5012821;28;20040;-50
2021/12/31 00:40:17;;;;;;;11.82;3.45;;;13.10;99.90;;;;;;4995230;28;20498;-49
2021/12/31 00:42:43;;;;;;;10.02;3.58;;;13.10;99.90;;;;;;5012522;28;20057;-51
2021/12/31 00:45:12;;;;;;;14.80;3.60;;;13.10;99.90;;;;;;5010536;28;20048;-50
2021/12/31 00:47:38;;;;;;;14.60;3.90;;;13.10;99.90;;;;;;5009993;28;20494;-49
2021/12/31 00:50:04;;;;;;;13.27;3.60;;;13.10;99.90;;;;;;5012655;28;20042;-49
2021/12/31 00:52:30;;;;;;;10.25;3.22;;;13.10;99.90;;;;;;5012225;28;20038;-48
2021/12/31 00:54:55;;;;;;;11.65;3.25;;;13.10;99.90;;;;;;5012200;28;20457;-50
2021/12/31 00:57:21;;;;;;;11.90;3.50;;;13.20;99.90;;;;;;5011800;28;20038;-52
2021/12/31 00:59:47;;;;;;;14.70;4.35;;;13.20;99.90;;;;;;5012446;28;20406;-47
2021/12/31 01:02:15;;;;;;;12.45;3.33;;;13.20;99.90;;;;;;4994698;28;20405;-51
2021/12/31 01:04:41;;;;;;;12.95;3.70;;;13.20;99.90;;;;;;5012876;28;20052;-51
2021/12/31 01:07:07;;;;;;;16.65;4.20;;;13.20;99.90;;;;;;4975319;28;20552;-48
2021/12/31 01:09:33;;;;;;;12.10;3.20;;;13.20;99.90;;;;;;5012546;28;20042;-50
2021/12/31 01:12:01;;;;;;;14.38;3.88;;;13.20;99.90;;;;;;5012380;28;20049;-48
2021/12/31 01:14:32;;;;;;;8.43;3.15;;;13.20;99.90;;;;;;5012778;28;20077;-49
2021/12/31 01:17:02;;;;;;;9.63;3.47;;;13.20;99.90;;;;;;5012425;28;20049;-50
2021/12/31 01:19:47;;;;;;;13.23;3.90;;;13.20;99.90;;;;;;5011520;28;20295;-50
2021/12/31 01:22:17;;;;;;;16.35;3.97;;;13.20;99.90;;;;;;5012486;28;20486;-49
2021/12/31 01:24:43;;;;;;;18.33;4.00;;;13.20;99.90;;;;;;5012394;28;20473;-51
2021/12/31 01:27:11;;;;;;;11.55;3.47;;;13.10;99.90;;;;;;5012976;28;20091;-52
2021/12/31 01:29:37;;;;;;;12.63;3.53;;;13.10;99.90;;;;;;5012647;28;20045;-49
2021/12/31 01:32:03;;;;;;;13.68;3.88;;;13.10;99.90;;;;;;5012592;28;20166;-51
2021/12/31 01:34:28;;;;;;;12.05;3.30;;;13.10;99.90;;;;;;5012843;28;20517;-50
2021/12/31 01:36:54;;;;;;;9.50;3.42;;;13.10;99.90;;;;;;4993947;28;20046;-48
2021/12/31 01:39:20;;;;;;;13.27;3.92;;;13.20;99.90;;;;;;5011017;28;20088;-50
2021/12/31 01:41:45;;;;;;;10.13;3.45;;;13.20;99.90;;;;;;5012524;28;20041;-48
2021/12/31 01:44:11;;;;;;;13.45;4.35;;;13.20;99.90;;;;;;5011882;28;20045;-49
2021/12/31 01:46:40;;;;;;;11.63;3.58;;;13.20;99.90;;;;;;5012142;28;20056;-48
2021/12/31 01:49:18;;;;;;;10.98;3.70;;;13.20;99.90;;;;;;5011459;28;20046;-51
2021/12/31 01:51:44;;;;;;;12.85;3.95;;;13.20;99.90;;;;;;5003308;28;20033;-49
2021/12/31 01:54:10;;;;;;;9.75;4.43;;;13.20;99.90;;;;;;5011600;28;20085;-51
2021/12/31 01:56:37;;;;;;;12.43;4.35;;;13.20;99.90;;;;;;5011758;28;20139;-49
2021/12/31 01:59:04;;;;;;;14.88;4.85;;;13.20;99.90;;;;;;5011575;28;20414;-48
2021/12/31 02:01:30;;;;;;;14.73;4.07;;;13.20;99.90;;;;;;5011458;28;20042;-48
2021/12/31 02:03:55;;;;;;;12.00;4.57;;;13.20;99.90;;;;;;5011806;28;20122;-49
2021/12/31 02:06:21;;;;;;;10.73;4.00;;;13.20;99.90;;;;;;5010698;28;20052;-49
2021/12/31 02:08:47;;;;;;;12.60;4.60;;;13.20;99.90;;;;;;5011606;28;20402;-52
2021/12/31 02:11:17;;;;;;;12.10;3.80;;;13.20;99.90;;;;;;4993919;28;20037;-49
2021/12/31 02:13:43;;;;;;;13.38;5.40;;;13.20;99.90;;;;;;5011452;28;20632;-50
2021/12/31 02:16:09;;;;;;;8.88;4.25;;;13.20;99.90;;;;;;5011631;28;20038;-50
2021/12/31 02:18:35;;;;;;;9.65;4.90;;;13.20;99.90;;;;;;5011444;28;20459;-50
2021/12/31 02:21:03;;;;;;;11.20;4.57;;;13.20;99.90;;;;;;4977220;28;20046;-52
2021/12/31 02:23:38;;;;;;;11.82;4.10;;;13.20;99.90;;;;;;5011445;28;20041;-48
2021/12/31 02:26:03;;;;;;;11.27;4.80;;;13.20;99.90;;;;;;4993563;28;20092;-48
2021/12/31 02:28:29;;;;;;;13.32;4.65;;;13.20;99.90;;;;;;5011338;28;20046;-49
2021/12/31 02:31:00;;;;;;;11.57;5.10;;;13.20;99.90;;;;;;4977982;28;20038;-50
2021/12/31 02:33:26;;;;;;;10.10;4.82;;;13.20;99.90;;;;;;5010880;28;20042;-49
2021/12/31 02:35:52;;;;;;;10.85;5.32;;;13.20;99.90;;;;;;5011042;28;20243;-48
2021/12/31 02:38:17;;;;;;;10.18;4.97;;;13.20;99.90;;;;;;4970672;28;20387;-48
2021/12/31 02:40:43;;;;;;;10.40;4.78;;;13.20;99.90;;;;;;5011124;28;20045;-52
2021/12/31 02:43:09;;;;;;;12.27;5.00;;;13.30;99.90;;;;;;5011149;28;20078;-48
2021/12/31 02:45:37;;;;;;;12.60;5.25;;;13.20;99.90;;;;;;5011304;28;20046;-51
2021/12/31 02:48:05;;;;;;;10.88;4.80;;;13.20;99.90;;;;;;5012021;28;20038;-51
2021/12/31 02:50:34;;;;;;;9.75;5.10;;;13.30;99.90;;;;;;4997877;28;20117;-51
2021/12/31 02:53:01;;;;;;;10.02;5.45;;;13.30;99.90;;;;;;4981104;28;20184;-51
2021/12/31 02:55:30;;;;;;;10.45;5.78;;;13.30;99.90;;;;;;5014638;28;20034;-48
2021/12/31 02:57:56;;;;;;;13.00;6.32;;;13.30;99.90;;;;;;5014103;28;20038;-50
2021/12/31 03:00:22;;;;;;;12.77;6.10;;;13.30;99.90;;;;;;5014792;28;20033;-50
2021/12/31 03:02:49;;;;;;;11.00;5.68;;;13.40;99.90;;;;;;5014627;28;20116;-48
2021/12/31 03:05:14;;;;;;;10.20;5.30;;;13.40;99.90;;;;;;5014462;28;20034;-49
2021/12/31 03:07:41;;;;;;;11.75;5.90;;;13.40;99.90;;;;;;5014057;28;20030;-50
2021/12/31 03:10:09;;;;;;;14.27;5.57;;;13.40;99.90;;;;;;5014959;28;20043;-51
2021/12/31 03:12:36;;;;;;;10.18;5.78;;;13.40;99.90;;;;;;5014584;28;20030;-51
2021/12/31 03:15:02;;;;;;;9.68;5.70;;;13.40;99.90;;;;;;5013801;28;20379;-49
2021/12/31 03:17:30;;;;;;;11.05;5.53;;;13.40;99.90;;;;;;5014663;28;20133;-51
2021/12/31 03:20:08;;;;;;;13.02;6.63;;;13.40;99.90;;;;;;5014601;28;20038;-49
2021/12/31 03:22:33;;;;;;;10.73;5.53;;;13.50;99.90;;;;;;5014416;28;20125;-50
2021/12/31 03:24:59;;;;;;;8.52;5.60;;;13.40;99.90;;;;;;5014614;28;20124;-50
2021/12/31 03:27:24;;;;;;;6.95;5.50;;;13.50;99.90;;;;;;5013100;28;20048;-49
2021/12/31 03:29:50;;;;;;;10.35;5.78;;;13.50;99.90;;;;;;5014212;28;20060;-50
2021/12/31 03:32:15;;;;;;;12.70;5.30;;;13.50;99.90;;;;;;5014424;28;20034;-52
2021/12/31 03:34:41;;;;;;;9.90;5.70;;;13.50;99.90;;;;;;5013806;28;20041;-49
2021/12/31 03:37:06;;;;;;;12.15;5.55;;;13.50;99.90;;;;;;5014287;28;20045;-50
2021/12/31 03:39:32;;;;;;;12.32;6.40;;;13.50;99.90;;;;;;5014250;28;20496;-50
2021/12/31 03:41:57;;;;;;;9.55;5.50;;;13.40;99.90;;;;;;5014144;28;20044;-48
2021/12/31 03:44:23;;;;;;;10.32;5.95;;;13.40;99.90;;;;;;5013919;28;20042;-49
2021/12/31 03:46:49;;;;;;;9.43;5.38;;;13.40;99.90;;;;;;4978867;28;20049;-48
2021/12/31 03:49:14;;;;;;;9.60;5.72;;;13.40;99.90;;;;;;5014164;28;20080;-52
2021/12/31 03:51:40;;;;;;;11.38;6.05;;;13.40;99.90;;;;;;5013459;28;20037;-49
2021/12/31 03:54:06;;;;;;;12.45;6.28;;;13.40;99.90;;;;;;4996123;28;20374;-50
2021/12/31 03:56:33;;;;;;;9.45;5.45;;;13.40;99.90;;;;;;5013711;28;20038;-48
2021/12/31 03:58:59;;;;;;;8.45;5.63;;;13.40;99.90;;;;;;5013306;28;20033;-49
2021/12/31 04:01:26;;;;;;;10.63;5.53;;;13.50;99.90;;;;;;5013443;28;20045;-51
2021/12/31 04:03:52;;;;;;;11.00;5.25;;;13.40;99.90;;;;;;5013713;28;20050;-49
2021/12/31 04:06:18;;;;;;;10.07;5.75;;;13.40;99.90;;;;;;4995836;28;20053;-51
2021/12/31 04:08:43;;;;;;;8.68;5.40;;;13.40;99.90;;;;;;5040705;22;20069;-51
2021/12/31 04:11:13;;;;;;;9.05;5.55;;;13.40;99.90;;;;;;5033256;28;20124;-51
2021/12/31 04:13:38;;;;;;;11.15;5.10;;;13.40;99.90;;;;;;5032856;28;20041;-51
2021/12/31 04:16:04;;;;;;;13.25;5.60;;;13.40;99.90;;;;;;5033119;28;20415;-51
2021/12/31 04:18:30;;;;;;;9.60;4.85;;;13.40;99.90;;;;;;5032903;28;20045;-52
2021/12/31 04:20:57;;;;;;;10.40;5.03;;;13.40;99.90;;;;;;5033303;28;20037;-54
2021/12/31 04:23:31;;;;;;;9.45;5.32;;;13.30;99.90;;;;;;5032988;28;20052;-54
2021/12/31 04:25:58;;;;;;;8.52;4.63;;;13.40;99.90;;;;;;5032752;28;20903;-54
2021/12/31 04:28:25;;;;;;;11.73;4.38;;;13.40;99.90;;;;;;5032847;28;20327;-53
2021/12/31 04:30:51;;;;;;;10.68;4.38;;;13.40;99.90;;;;;;5033005;28;20048;-54
2021/12/31 04:33:17;;;;;;;8.65;3.90;;;13.40;99.90;;;;;;5032788;28;20041;-54
2021/12/31 04:35:42;;;;;;;8.35;3.83;;;13.40;99.90;;;;;;5032974;28;20084;-54
2021/12/31 04:38:08;;;;;;;6.85;3.78;;;13.40;99.90;;;;;;5032965;28;20081;-54
2021/12/31 04:40:33;;;;;;;8.80;3.70;;;13.50;99.90;;;;;;5033149;28;20073;-54
2021/12/31 04:42:59;;;;;;;8.15;3.50;;;13.50;99.90;;;;;;5031799;28;20474;-54
2021/12/31 04:45:25;;;;;;;6.35;3.67;;;13.50;99.90;;;;;;5032760;28;20041;-54
2021/12/31 04:47:50;;;;;;;8.45;3.80;;;13.50;99.90;;;;;;5029020;28;20033;-54
2021/12/31 04:50:16;;;;;;;8.05;3.13;;;13.50;99.90;;;;;;5028762;28;20033;-54
2021/12/31 04:52:41;;;;;;;8.98;3.10;;;13.50;99.90;;;;;;5032316;28;20052;-54
2021/12/31 04:55:08;;;;;;;7.55;2.97;;;13.50;99.90;;;;;;5032452;28;20041;-53
2021/12/31 04:57:33;;;;;;;4.75;2.67;;;13.50;99.90;;;;;;5031977;28;20041;-54
2021/12/31 04:59:59;;;;;;;9.40;3.35;;;13.50;99.90;;;;;;5032423;28;20056;-51
2021/12/31 05:02:24;;;;;;;6.72;2.80;;;13.50;99.90;;;;;;5032495;28;20115;-50
2021/12/31 05:04:51;;;;;;;5.85;2.78;;;13.50;99.90;;;;;;5032179;28;20139;-51
2021/12/31 05:07:17;;;;;;;6.53;2.65;;;13.50;99.90;;;;;;5030514;28;20045;-51
2021/12/31 05:09:42;;;;;;;7.55;2.38;;;13.50;99.90;;;;;;5032589;28;20496;-53
2021/12/31 05:12:14;;;;;;;8.95;3.10;;;13.60;99.90;;;;;;5031237;28;20378;-51
2021/12/31 05:14:39;;;;;;;8.95;2.70;;;13.50;99.90;;;;;;5032304;28;20120;-50
2021/12/31 05:17:05;;;;;;;10.93;2.60;;;13.50;99.90;;;;;;5032097;28;20125;-50
2021/12/31 05:19:30;;;;;;;8.13;2.85;;;13.50;99.90;;;;;;5025346;28;20041;-51
2021/12/31 05:21:56;;;;;;;6.82;2.30;;;13.60;99.90;;;;;;5012597;28;20041;-51
2021/12/31 05:24:21;;;;;;;7.03;2.30;;;13.50;99.90;;;;;;5011992;28;20052;-52
2021/12/31 05:26:47;;;;;;;6.78;2.63;;;13.50;99.90;;;;;;5014164;28;20045;-51
2021/12/31 05:29:12;;;;;;;7.00;2.50;;;13.50;99.90;;;;;;5031615;28;20099;-51
2021/12/31 05:31:38;;;;;;;6.00;2.33;;;13.50;99.90;;;;;;5031783;28;20045;-51
2021/12/31 05:34:03;;;;;;;6.05;2.15;;;13.50;99.90;;;;;;5031702;28;20041;-51
2021/12/31 05:36:29;;;;;;;7.05;2.40;;;13.50;99.90;;;;;;5031785;28;20042;-51
2021/12/31 05:38:54;;;;;;;6.00;2.38;;;13.50;99.90;;;;;;5031518;28;20043;-50
2021/12/31 05:41:20;;;;;;;7.57;2.30;;;13.40;99.90;;;;;;5032089;28;20041;-51
2021/12/31 05:43:46;;;;;;;5.93;2.15;;;13.40;99.90;;;;;;5018892;28;20042;-51
2021/12/31 05:46:11;;;;;;;5.35;2.05;;;13.30;99.90;;;;;;5011927;28;20041;-50
2021/12/31 05:48:37;;;;;;;5.68;2.38;;;13.30;99.90;;;;;;5011877;28;20041;-50
2021/12/31 05:51:03;;;;;;;4.78;2.33;;;13.30;99.90;;;;;;5025220;28;20033;-51
2021/12/31 05:53:28;;;;;;;3.85;2.03;;;13.30;99.90;;;;;;5031019;28;20532;-51
2021/12/31 05:55:54;;;;;;;6.63;2.30;;;13.30;99.90;;;;;;5031745;28;20098;-51
2021/12/31 05:58:20;;;;;;;5.20;2.15;;;13.30;99.90;;;;;;5031564;28;20037;-51
2021/12/31 06:00:45;;;;;;;5.25;2.20;;;13.30;99.90;;;;;;5031467;28;20037;-51
2021/12/31 06:03:11;;;;;;;7.32;2.58;;;13.20;99.90;;;;;;5031395;28;20562;-52
2021/12/31 06:05:36;;;;;;;4.22;2.40;;;13.20;99.90;;;;;;5031420;28;20389;-51
2021/12/31 06:08:02;;;;;;;6.93;2.53;;;13.30;99.90;;;;;;5030581;28;20128;-52
2021/12/31 06:10:27;;;;;;;7.20;2.22;;;13.20;99.90;;;;;;5013713;28;20116;-51
2021/12/31 06:12:58;;;;;;;3.72;1.88;;;13.20;99.90;;;;;;5031163;28;20096;-51
2021/12/31 06:15:25;;;;;;;3.75;2.13;;;13.30;99.90;;;;;;5031361;28;20038;-51
2021/12/31 06:17:51;;;;;;;6.00;2.42;;;13.30;99.90;;;;;;5030472;28;20401;-51
2021/12/31 06:20:16;;;;;;;5.85;2.08;;;13.20;99.90;;;;;;5031316;28;20037;-51
2021/12/31 06:22:42;;;;;;;4.55;2.28;;;13.20;99.90;;;;;;5033027;28;20049;-51
2021/12/31 06:25:08;;;;;;;4.85;2.17;;;13.20;99.90;;;;;;5035526;28;20033;-51
2021/12/31 06:27:34;;;;;;;4.75;2.35;;;13.20;99.90;;;;;;5034873;28;20065;-51
2021/12/31 06:29:59;;;;;;;6.38;2.20;;;13.20;99.90;;;;;;5035300;28;20067;-50
2021/12/31 06:32:25;;;;;;;4.32;2.20;;;13.20;99.90;;;;;;5035135;28;20168;-51
2021/12/31 06:34:50;;;;;;;8.25;2.10;;;13.20;99.90;;;;;;5034861;28;20041;-51
2021/12/31 06:37:16;;;;;;;8.40;2.08;;;13.20;99.90;;;;;;5034971;28;20045;-50
2021/12/31 06:39:43;;;;;;;5.82;2.20;;;13.20;99.90;;;;;;5035256;28;20088;-52
2021/12/31 06:42:09;;;;;;;7.00;2.15;;;13.20;99.90;;;;;;5029056;28;20041;-51
2021/12/31 06:44:36;;;;;;;6.18;2.53;;;13.10;99.90;;;;;;5023773;28;20145;-51
2021/12/31 06:47:03;;;;;;;4.43;2.20;;;13.20;99.90;;;;;;5022469;28;20429;-52
2021/12/31 06:49:29;;;;;;;8.10;2.50;;;13.20;99.90;;;;;;5032253;28;20037;-51
2021/12/31 06:51:55;;;;;;;5.60;2.20;;;13.10;99.90;;;;;;5035001;28;20038;-52
2021/12/31 06:54:20;;;;;;;4.70;2.10;;;13.10;99.90;;;;;;5027745;28;20044;-51
2021/12/31 06:56:46;;;;;;;6.43;2.22;;;13.10;99.90;;;;;;5023113;28;20030;-52
2021/12/31 06:59:12;;;;;;;4.10;2.00;;;13.10;99.90;;;;;;5030052;28;20052;-51
2021/12/31 07:01:37;;;;;;;7.05;2.50;;;13.10;99.90;;;;;;5034565;28;20048;-51
2021/12/31 07:04:03;;;;;;;6.95;2.45;;;13.10;99.90;;;;;;5034489;28;20148;-50
2021/12/31 07:06:28;;;;;;;6.05;2.40;;;13.10;99.90;;;;;;5034343;28;20038;-51
2021/12/31 07:08:54;;;;;;;6.93;2.45;;;13.10;99.90;;;;;;5034427;28;20513;-51
2021/12/31 07:11:22;;;;;;;8.52;2.85;;;13.00;99.90;;;;;;5033598;28;20037;-50
2021/12/31 07:13:48;;;;;;;7.32;2.35;;;13.00;99.90;;;;;;5034078;28;20076;-51
2021/12/31 07:16:14;;;;;;;5.18;2.50;;;13.00;99.90;;;;;;5030195;28;20053;-50
2021/12/31 07:18:40;;;;;;;4.70;2.50;;;13.00;99.90;;;;;;5034087;28;20041;-51
2021/12/31 07:21:05;;;;;;;7.00;2.63;;;13.00;99.90;;;;;;5034192;28;20103;-53
2021/12/31 07:23:31;;;;;;;7.70;2.40;;;12.90;99.90;;;;;;5034312;28;20044;-50
2021/12/31 07:25:56;;;;;;;5.88;2.20;;;12.90;99.90;;;;;;5034046;28;20353;-54
2021/12/31 07:28:22;;;;;;;6.88;2.13;;;12.90;99.90;;;;;;5034013;28;20041;-51
2021/12/31 07:30:48;;;;;;;6.40;2.40;;;12.90;99.90;;;;;;5034292;28;20041;-51
2021/12/31 07:33:22;;;;;;;6.63;2.53;;;12.90;99.90;;;;;;5033345;28;20083;-51
2021/12/31 07:35:50;;;;;;;4.13;2.10;;;12.90;99.90;;;;;;5026213;28;20557;-51
2021/12/31 07:38:20;;;;;;;5.18;2.50;;;12.90;99.90;;;;;;5034000;28;20108;-51
2021/12/31 07:40:47;;;;;;;6.43;2.38;;;12.90;99.90;;;;;;5033527;28;20454;-51
2021/12/31 07:43:14;;;;;;;9.63;2.60;;;12.90;99.90;;;;;;5033804;28;20048;-51
2021/12/31 07:45:40;;;;;;;5.38;2.28;;;12.90;99.90;;;;;;5033501;28;20029;-51
2021/12/31 07:48:06;;;;;;;6.30;2.60;;;12.90;99.90;;;;;;5033631;28;20048;-51
2021/12/31 07:50:32;;;;;;;5.70;2.30;;;12.90;99.90;;;;;;5033816;28;20049;-51
2021/12/31 07:52:58;;;;;;;7.47;3.00;;;12.90;99.90;;;;;;5033839;28;20045;-54
2021/12/31 07:55:24;;;;;;;5.65;2.25;;;12.90;99.90;;;;;;5018084;28;20045;-54
2021/12/31 07:57:50;;;;;;;4.95;2.30;;;12.90;99.90;;;;;;5013687;28;20073;-54
2021/12/31 08:00:15;;;;;;;6.50;2.50;;;12.90;99.90;;;;;;5013735;28;20038;-54
2021/12/31 08:02:41;;;;;;;4.80;2.20;;;12.90;99.90;;;;;;5013477;28;20034;-54
2021/12/31 08:05:07;;;;;;;5.75;2.72;;;13.00;99.90;;;;;;5014008;28;20034;-54
2021/12/31 08:07:33;;;;;;;5.55;2.47;;;13.00;99.90;;;;;;5027264;28;20095;-54
2021/12/31 08:09:58;;;;;;;5.47;2.10;;;13.00;99.90;;;;;;5033474;28;20041;-54
2021/12/31 08:12:24;;;;;;;6.30;2.53;;;13.00;99.90;;;;;;5032863;28;20044;-53
2021/12/31 08:14:50;;;;;;;7.80;2.78;;;13.00;99.90;;;;;;5032217;28;20067;-54
2021/12/31 08:17:16;;;;;;;9.57;3.00;;;13.10;99.90;;;;;;5033022;28;20148;-54
2021/12/31 08:19:41;;;;;;;8.43;3.10;;;13.10;99.90;;;;;;5035132;28;20049;-54
2021/12/31 08:22:07;;;;;;;7.18;3.10;;;13.10;99.90;;;;;;5031269;28;20048;-52
2021/12/31 08:24:33;;;;;;;10.48;4.93;;;13.10;99.90;;;;;;5033016;28;20037;-53
2021/12/31 08:26:59;;;;;;;13.07;5.15;;;13.10;99.90;;;;;;5023690;28;20053;-54
2021/12/31 08:29:24;;;;;;;12.50;5.70;;;13.10;99.90;;;;;;5032903;28;20053;-54
2021/12/31 08:31:50;;;;;;;13.85;6.72;;;13.10;99.90;;;;;;5032841;28;20098;-53
2021/12/31 08:34:15;;;;;;;10.48;5.80;;;13.20;99.90;;;;;;5032758;28;20034;-56
2021/12/31 08:36:41;;;;;;;14.38;6.57;;;13.20;99.90;;;;;;5032589;28;20040;-52
2021/12/31 08:39:08;;;;;;;14.77;7.13;;;13.20;99.90;;;;;;5030454;28;20036;-51
2021/12/31 08:41:34;;;;;;;12.80;6.78;;;13.20;99.90;;;;;;5027965;28;20037;-54
2021/12/31 08:44:00;;;;;;;13.45;6.68;;;13.20;99.90;;;;;;5017865;28;20065;-52
2021/12/31 08:46:26;;;;;;;10.65;5.35;;;13.20;99.90;;;;;;5011903;28;20502;-53
2021/12/31 08:48:51;;;;;;;12.95;5.85;;;13.20;99.90;;;;;;5015252;28;20099;-54
2021/12/31 08:51:17;;;;;;;14.75;5.88;;;13.20;99.90;;;;;;5012457;28;20034;-52
2021/12/31 08:53:43;;;;;;;12.07;6.03;;;13.20;99.90;;;;;;5025529;28;20060;-53
2021/12/31 08:56:08;;;;;;;13.38;6.00;;;13.20;99.90;;;;;;5027142;28;20456;-51
2021/12/31 08:58:34;;;;;;;11.68;5.47;;;13.20;99.90;;;;;;5025091;28;20104;-52
2021/12/31 09:00:59;;;;;;;9.57;4.38;;;13.20;99.90;;;;;;5018072;28;20124;-51
2021/12/31 09:03:25;;;;;;;9.45;4.30;;;13.30;99.90;;;;;;5019851;28;20034;-51
2021/12/31 09:05:50;;;;;;;8.25;3.28;;;13.30;99.90;;;;;;5004573;28;20520;-51
2021/12/31 09:08:16;;;;;;;7.65;3.00;;;13.20;99.90;;;;;;5027342;28;20138;-51
2021/12/31 09:10:42;;;;;;;11.85;2.80;;;13.20;99.90;;;;;;5031445;28;20534;-51
2021/12/31 09:13:08;;;;;;;6.53;3.40;;;13.20;99.90;;;;;;5026840;28;20080;-50
2021/12/31 09:15:33;;;;;;;6.32;2.60;;;13.20;99.90;;;;;;5022332;28;20543;-54
2021/12/31 09:17:59;;;;;;;12.75;8.77;;;13.20;99.90;;;;;;5019046;28;20037;-52
2021/12/31 09:20:25;;;;;;;6.57;3.10;;;13.20;99.90;;;;;;5023638;28;20041;-51
2021/12/31 09:22:51;;;;;;;10.50;3.10;;;13.10;99.90;;;;;;5025999;28;20034;-51
2021/12/31 09:25:17;;;;;;;8.93;4.13;;;13.10;99.90;;;;;;5025537;28;20040;-51
2021/12/31 09:27:42;;;;;;;6.72;2.70;;;13.10;99.90;;;;;;5017538;28;20552;-53
2021/12/31 09:30:09;;;;;;;7.03;2.78;;;13.20;99.90;;;;;;5010433;28;20034;-50
2021/12/31 09:32:35;;;;;;;6.20;3.00;;;13.20;99.90;;;;;;5014228;28;20042;-53
2021/12/31 09:35:01;;;;;;;8.02;3.25;;;13.20;99.90;;;;;;5023596;28;20112;-50
2021/12/31 09:37:26;;;;;;;12.98;10.40;;;13.10;99.90;;;;;;5020569;28;20116;-52
2021/12/31 09:39:52;;;;;;;6.22;3.22;;;13.20;99.90;;;;;;5020613;28;20069;-51
2021/12/31 09:42:17;;;;;;;7.35;3.08;;;13.20;99.90;;;;;;5023986;28;20077;-52
2021/12/31 09:44:49;;;;;;;11.00;6.30;;;13.20;99.90;;;;;;5024186;28;20041;-51
2021/12/31 09:47:16;;;;;;;36.72;27.65;;;13.10;99.90;;;;;;5019072;28;20034;-54
2021/12/31 09:49:42;;;;;;;54.33;47.03;;;13.20;99.90;;;;;;5024541;28;20501;-51
2021/12/31 09:52:10;;;;;;;21.88;10.70;;;13.10;99.90;;;;;;5003312;28;20072;-53
2021/12/31 09:54:39;;;;;;;8.88;3.75;;;13.10;99.90;;;;;;5023845;28;20449;-53
2021/12/31 09:57:06;;;;;;;11.63;4.50;;;13.10;99.90;;;;;;5024655;28;20045;-52
2021/12/31 09:59:32;;;;;;;8.38;3.75;;;13.10;99.90;;;;;;5031325;28;20477;-51
2021/12/31 10:01:57;;;;;;;7.60;3.83;;;13.10;99.90;;;;;;5030458;28;20038;-53
2021/12/31 10:04:23;;;;;;;12.02;4.30;;;13.10;99.90;;;;;;5018094;28;20090;-51
2021/12/31 10:07:20;;;;;;;9.82;4.25;;;13.10;99.90;;;;;;5023833;28;20053;-51
2021/12/31 10:10:11;;;;;;;10.20;4.07;;;13.10;99.90;;;;;;5023072;28;20053;-50
2021/12/31 10:12:59;;;;;;;7.10;4.30;;;13.10;99.90;;;;;;5020800;28;20037;-51
2021/12/31 10:15:25;;;;;;;8.70;4.00;;;13.10;99.90;;;;;;5026478;28;20029;-51
2021/12/31 10:17:52;;;;;;;9.68;4.68;;;13.10;99.90;;;;;;5068477;22;20132;-50
2021/12/31 10:20:18;;;;;;;9.50;4.95;;;13.10;99.90;;;;;;5008066;28;20052;-51
2021/12/31 10:22:46;;;;;;;7.32;4.10;;;13.10;99.90;;;;;;5015547;28;20029;-53
2021/12/31 10:25:39;;;;;;;10.20;5.25;;;13.10;99.90;;;;;;5025111;28;20064;-53
2021/12/31 10:28:14;;;;;;;10.63;4.57;;;13.10;99.90;;;;;;5002768;28;20061;-51
2021/12/31 10:30:40;;;;;;;9.98;4.78;;;13.10;99.90;;;;;;5008319;28;20136;-48
2021/12/31 10:33:06;;;;;;;10.85;4.93;;;13.10;99.90;;;;;;4974834;28;20034;-50
2021/12/31 10:35:43;;;;;;;9.23;4.72;;;13.10;99.90;;;;;;5002313;28;20037;-52
2021/12/31 10:38:12;;;;;;;8.40;4.63;;;13.10;99.90;;;;;;5005610;28;20104;-51
2021/12/31 10:40:45;;;;;;;9.07;5.18;;;13.10;99.90;;;;;;4989222;28;20221;-49
2021/12/31 10:43:23;;;;;;;14.82;5.90;;;13.10;99.90;;;;;;5003463;28;20034;-53
2021/12/31 10:46:00;;;;;;;12.00;5.78;;;13.10;99.90;;;;;;5004507;28;20527;-50
2021/12/31 10:48:55;;;;;;;12.07;5.82;;;13.10;99.90;;;;;;5004868;28;20042;-53
2021/12/31 10:51:43;;;;;;;11.25;5.53;;;13.10;99.90;;;;;;5000333;28;20046;-49
2021/12/31 10:54:30;;;;;;;12.27;6.00;;;13.00;99.90;;;;;;5006067;28;20084;-49
2021/12/31 10:56:57;;;;;;;11.63;6.10;;;13.00;99.90;;;;;;5006816;28;20042;-54
2021/12/31 10:59:23;;;;;;;10.00;5.88;;;13.00;99.90;;;;;;5007842;28;20124;-51
2021/12/31 11:01:49;;;;;;;11.20;6.65;;;12.90;99.90;;;;;;4990590;28;20140;-51
2021/12/31 11:04:17;;;;;;;14.43;6.63;;;13.00;99.90;;;;;;4995533;28;20113;-51
2021/12/31 11:06:44;;;;;;;12.38;5.97;;;13.00;99.90;;;;;;4999932;28;20062;-53
2021/12/31 11:09:13;;;;;;;9.45;5.72;;;12.90;99.90;;;;;;4987675;28;20171;-54
2021/12/31 11:11:42;;;;;;;8.63;4.88;;;13.00;99.90;;;;;;5004246;28;21538;-51
2021/12/31 11:14:08;;;;;;;10.05;5.50;;;12.90;99.90;;;;;;5005168;28;20041;-51
2021/12/31 11:16:38;;;;;;;10.82;5.63;;;12.90;99.90;;;;;;5006226;28;20206;-54
2021/12/31 11:19:04;;;;;;;18.42;12.40;;;12.90;99.90;;;;;;5008444;28;20041;-53
2021/12/31 11:21:31;;;;;;;12.10;5.70;;;12.90;99.90;;;;;;5003173;28;20417;-54
2021/12/31 11:24:37;;;;;;;11.35;5.50;;;12.90;99.90;;;;;;5001249;28;20560;-51
2021/12/31 11:27:32;;;;;;;13.13;5.97;;;12.90;99.90;;;;;;5002874;28;20053;-54
2021/12/31 11:30:02;;;;;;;35.72;28.95;;;13.00;99.90;;;;;;5005331;28;20552;-50
2021/12/31 11:32:43;;;;;;;8.80;5.47;;;12.90;99.90;;;;;;4987707;28;20679;-54
2021/12/31 11:35:29;;;;;;;10.35;5.65;;;12.90;99.90;;;;;;5002537;28;20417;-49
2021/12/31 11:37:54;;;;;;;12.15;6.20;;;13.00;99.90;;;;;;5008047;28;20038;-53
2021/12/31 11:40:39;;;;;;;12.25;6.22;;;13.00;99.90;;;;;;4977384;28;20040;-51
2021/12/31 11:43:24;;;;;;;13.20;7.60;;;13.00;99.90;;;;;;5006915;28;20072;-53
2021/12/31 11:46:08;;;;;;;11.38;6.38;;;13.00;99.90;;;;;;5007433;28;20143;-52
2021/12/31 11:48:47;;;;;;;11.77;6.32;;;13.00;99.90;;;;;;5006225;28;20050;-50
2021/12/31 11:51:17;;;;;;;10.13;6.00;;;13.00;99.90;;;;;;5004701;28;20065;-51
2021/12/31 11:54:00;;;;;;;9.02;5.30;;;13.00;99.90;;;;;;4998303;28;20045;-50
2021/12/31 11:56:39;;;;;;;10.88;5.30;;;13.10;99.90;;;;;;4989594;28;20443;-52
2021/12/31 11:59:11;;;;;;;10.07;4.97;;;13.10;99.90;;;;;;5002423;28;20042;-51
2021/12/31 12:01:36;;;;;;;10.45;5.07;;;13.10;99.90;;;;;;5007900;28;20046;-49
2021/12/31 12:04:25;;;;;;;11.30;4.80;;;13.10;99.90;;;;;;4993393;28;20096;-50
2021/12/31 12:07:10;;;;;;;9.50;4.85;;;13.10;99.90;;;;;;5006442;28;20041;-48
2021/12/31 12:09:35;;;;;;;8.57;4.75;;;13.10;99.90;;;;;;5009290;28;20056;-48
2021/12/31 12:12:15;;;;;;;11.52;5.35;;;13.10;99.90;;;;;;5012352;28;20525;-48
2021/12/31 12:14:46;;;;;;;10.93;5.90;;;13.10;99.90;;;;;;5007716;28;20486;-51
2021/12/31 12:17:14;;;;;;;12.87;6.00;;;13.10;99.90;;;;;;5010951;28;20176;-51
2021/12/31 12:19:51;;;;;;;14.15;6.75;;;13.10;99.90;;;;;;5013121;28;20037;-49
2021/12/31 12:22:33;;;;;;;16.85;7.97;;;13.10;99.90;;;;;;5013313;28;20088;-52
2021/12/31 12:25:09;;;;;;;13.30;8.60;;;13.10;99.90;;;;;;4976695;28;20475;-48
2021/12/31 12:27:35;;;;;;;15.27;9.18;;;13.10;99.90;;;;;;4992825;28;20039;-50
2021/12/31 12:30:04;;;;;;;16.30;8.90;;;13.00;99.90;;;;;;4993950;28;20088;-48
2021/12/31 12:32:32;;;;;;;16.08;8.82;;;13.00;99.90;;;;;;4994005;28;20049;-50
2021/12/31 12:34:59;;;;;;;15.15;8.40;;;12.90;99.90;;;;;;4993849;28;20106;-48
2021/12/31 12:37:28;;;;;;;13.35;7.68;;;12.80;99.90;;;;;;5001472;28;20053;-50
2021/12/31 12:40:03;;;;;;;15.95;7.97;;;12.70;99.90;;;;;;4959902;28;20053;-48
2021/12/31 12:42:28;;;;;;;14.57;7.80;;;12.70;99.90;;;;;;4993728;28;20410;-47
2021/12/31 12:45:03;;;;;;;15.15;8.50;;;12.70;99.90;;;;;;5011113;28;20038;-50